sensor_id;sensor_type;location;lat;lon;timestamp;pressure;altitude;pressure_sealevel;temperature;humidity
47897;BME280;39629;51.400;5.494;2024-03-08T00:01:14;101664.91;;;3.44;83.40
47897;BME280;39629;51.400;5.494;2024-03-08T00:06:16;101667.50;;;3.39;83.63
47897;BME280;39629;51.400;5.494;2024-03-08T00:11:19;101657.88;;;3.33;84.69
47897;BME280;39629;51.400;5.494;2024-03-08T00:16:21;101658.91;;;3.32;83.51
47897;BME280;39629;51.400;5.494;2024-03-08T00:21:24;101658.41;;;3.35;83.47
47897;BME280;39629;51.400;5.494;2024-03-08T00:26:28;101644.72;;;3.21;82.46
47897;BME280;39629;51.400;5.494;2024-03-08T00:31:30;101641.34;;;3.09;83.06
47897;BME280;39629;51.400;5.494;2024-03-08T00:36:32;101636.28;;;3.08;83.63
47897;BME280;39629;51.400;5.494;2024-03-08T00:41:35;101630.50;;;3.11;82.87
47897;BME280;39629;51.400;5.494;2024-03-08T00:46:36;101629.00;;;2.98;83.38
47897;BME280;39629;51.400;5.494;2024-03-08T00:51:38;101627.00;;;2.88;84.38
47897;BME280;39629;51.400;5.494;2024-03-08T00:56:41;101617.44;;;2.87;84.11
47897;BME280;39629;51.400;5.494;2024-03-08T01:01:43;101610.47;;;2.81;83.94
47897;BME280;39629;51.400;5.494;2024-03-08T01:06:45;101608.56;;;2.77;84.73
47897;BME280;39629;51.400;5.494;2024-03-08T01:11:49;101602.13;;;2.72;83.25
47897;BME280;39629;51.400;5.494;2024-03-08T01:16:50;101603.09;;;2.66;84.09
47897;BME280;39629;51.400;5.494;2024-03-08T01:21:52;101600.13;;;2.63;83.17
47897;BME280;39629;51.400;5.494;2024-03-08T01:26:57;101593.66;;;2.54;83.95
47897;BME280;39629;51.400;5.494;2024-03-08T01:31:59;101586.19;;;2.51;84.74
47897;BME280;39629;51.400;5.494;2024-03-08T01:37:01;101579.75;;;2.47;84.96
47897;BME280;39629;51.400;5.494;2024-03-08T01:42:04;101578.56;;;2.37;84.55
47897;BME280;39629;51.400;5.494;2024-03-08T01:47:06;101564.69;;;2.30;83.65
47897;BME280;39629;51.400;5.494;2024-03-08T01:52:08;101567.50;;;2.24;85.30
47897;BME280;39629;51.400;5.494;2024-03-08T01:57:11;101569.25;;;2.18;83.90
47897;BME280;39629;51.400;5.494;2024-03-08T02:02:14;101562.25;;;2.12;84.64
47897;BME280;39629;51.400;5.494;2024-03-08T02:07:20;101559.53;;;2.07;85.37
47897;BME280;39629;51.400;5.494;2024-03-08T02:12:23;101552.88;;;2.04;84.24
47897;BME280;39629;51.400;5.494;2024-03-08T02:17:25;101544.59;;;2.01;85.32
47897;BME280;39629;51.400;5.494;2024-03-08T02:22:28;101549.56;;;1.97;84.29
47897;BME280;39629;51.400;5.494;2024-03-08T02:27:32;101541.53;;;1.92;84.23
47897;BME280;39629;51.400;5.494;2024-03-08T02:32:33;101529.44;;;1.80;84.88
47897;BME280;39629;51.400;5.494;2024-03-08T02:37:36;101516.75;;;1.82;84.65
47897;BME280;39629;51.400;5.494;2024-03-08T02:42:38;101508.47;;;1.78;85.32
47897;BME280;39629;51.400;5.494;2024-03-08T02:47:40;101513.53;;;1.80;85.13
47897;BME280;39629;51.400;5.494;2024-03-08T02:52:43;101504.06;;;1.67;85.01
47897;BME280;39629;51.400;5.494;2024-03-08T02:57:46;101503.50;;;1.65;85.09
47897;BME280;39629;51.400;5.494;2024-03-08T03:02:48;101493.22;;;1.68;84.87
47897;BME280;39629;51.400;5.494;2024-03-08T03:07:53;101490.97;;;1.60;84.83
47897;BME280;39629;51.400;5.494;2024-03-08T03:12:55;101485.94;;;1.59;84.58
47897;BME280;39629;51.400;5.494;2024-03-08T03:17:57;101469.41;;;1.52;84.81
47897;BME280;39629;51.400;5.494;2024-03-08T03:23:00;101466.50;;;1.53;85.24
47897;BME280;39629;51.400;5.494;2024-03-08T03:28:04;101469.78;;;1.43;84.87
47897;BME280;39629;51.400;5.494;2024-03-08T03:33:07;101468.84;;;1.50;84.92
47897;BME280;39629;51.400;5.494;2024-03-08T03:38:11;101453.09;;;1.43;84.36
47897;BME280;39629;51.400;5.494;2024-03-08T03:43:14;101461.22;;;1.53;83.83
47897;BME280;39629;51.400;5.494;2024-03-08T03:48:16;101455.53;;;1.61;82.84
47897;BME280;39629;51.400;5.494;2024-03-08T03:53:19;101444.53;;;1.53;83.27
47897;BME280;39629;51.400;5.494;2024-03-08T03:58:21;101441.41;;;1.56;83.61
47897;BME280;39629;51.400;5.494;2024-03-08T04:03:22;101449.03;;;1.52;83.89
47897;BME280;39629;51.400;5.494;2024-03-08T04:08:25;101436.03;;;1.51;83.10
47897;BME280;39629;51.400;5.494;2024-03-08T04:13:27;101435.31;;;1.55;82.75
47897;BME280;39629;51.400;5.494;2024-03-08T04:18:29;101430.31;;;1.59;83.24
47897;BME280;39629;51.400;5.494;2024-03-08T04:23:33;101434.56;;;1.60;82.24
47897;BME280;39629;51.400;5.494;2024-03-08T04:28:35;101423.09;;;1.54;82.98
47897;BME280;39629;51.400;5.494;2024-03-08T04:33:37;101425.75;;;1.54;82.96
47897;BME280;39629;51.400;5.494;2024-03-08T04:38:40;101422.88;;;1.56;82.25
47897;BME280;39629;51.400;5.494;2024-03-08T04:43:42;101410.91;;;1.53;82.07
47897;BME280;39629;51.400;5.494;2024-03-08T04:48:44;101408.25;;;1.53;81.94
47897;BME280;39629;51.400;5.494;2024-03-08T04:53:47;101400.50;;;1.47;82.18
47897;BME280;39629;51.400;5.494;2024-03-08T04:58:48;101404.41;;;1.44;82.91
47897;BME280;39629;51.400;5.494;2024-03-08T05:03:50;101401.59;;;1.51;82.58
47897;BME280;39629;51.400;5.494;2024-03-08T05:08:55;101397.69;;;1.53;81.42
47897;BME280;39629;51.400;5.494;2024-03-08T05:13:57;101385.97;;;1.49;81.80
47897;BME280;39629;51.400;5.494;2024-03-08T05:18:59;101387.75;;;1.43;82.87
47897;BME280;39629;51.400;5.494;2024-03-08T05:24:02;101381.56;;;1.38;82.37
47897;BME280;39629;51.400;5.494;2024-03-08T05:29:05;101384.03;;;1.28;82.80
47897;BME280;39629;51.400;5.494;2024-03-08T05:34:07;101374.88;;;1.35;82.50
47897;BME280;39629;51.400;5.494;2024-03-08T05:39:12;101369.38;;;1.37;82.58
47897;BME280;39629;51.400;5.494;2024-03-08T05:44:13;101375.03;;;1.29;82.94
47897;BME280;39629;51.400;5.494;2024-03-08T05:49:17;101370.00;;;1.27;83.04
47897;BME280;39629;51.400;5.494;2024-03-08T05:54:20;101360.44;;;1.26;82.85
47897;BME280;39629;51.400;5.494;2024-03-08T05:59:24;101358.84;;;1.25;83.51
47897;BME280;39629;51.400;5.494;2024-03-08T06:04:26;101349.06;;;1.26;83.54
47897;BME280;39629;51.400;5.494;2024-03-08T06:09:29;101358.38;;;1.28;82.63
47897;BME280;39629;51.400;5.494;2024-03-08T06:14:31;101344.88;;;1.30;82.50
47897;BME280;39629;51.400;5.494;2024-03-08T06:19:32;101338.00;;;1.29;82.96
47897;BME280;39629;51.400;5.494;2024-03-08T06:24:35;101337.19;;;1.28;83.33
47897;BME280;39629;51.400;5.494;2024-03-08T06:29:38;101336.88;;;1.25;83.56
47897;BME280;39629;51.400;5.494;2024-03-08T06:34:40;101325.88;;;1.33;82.55
47897;BME280;39629;51.400;5.494;2024-03-08T06:39:43;101334.56;;;1.45;81.85
47897;BME280;39629;51.400;5.494;2024-03-08T06:44:45;101337.28;;;1.50;81.41
47897;BME280;39629;51.400;5.494;2024-03-08T06:49:49;101326.09;;;1.65;81.19
47897;BME280;39629;51.400;5.494;2024-03-08T06:54:53;101332.19;;;1.65;82.04
47897;BME280;39629;51.400;5.494;2024-03-08T06:59:55;101332.25;;;1.70;81.27
47897;BME280;39629;51.400;5.494;2024-03-08T07:04:57;101330.84;;;1.85;80.12
47897;BME280;39629;51.400;5.494;2024-03-08T07:10:00;101336.59;;;1.98;80.06
47897;BME280;39629;51.400;5.494;2024-03-08T07:15:02;101334.41;;;2.17;78.79
47897;BME280;39629;51.400;5.494;2024-03-08T07:20:04;101325.38;;;2.35;79.02
47897;BME280;39629;51.400;5.494;2024-03-08T07:25:13;101317.88;;;2.54;78.80
47897;BME280;39629;51.400;5.494;2024-03-08T07:30:23;101322.59;;;2.79;76.63
47897;BME280;39629;51.400;5.494;2024-03-08T07:35:43;101306.34;;;3.02;76.68
47897;BME280;39629;51.400;5.494;2024-03-08T07:40:47;101298.78;;;3.16;76.71
47897;BME280;39629;51.400;5.494;2024-03-08T07:45:48;101297.09;;;3.42;73.89
47897;BME280;39629;51.400;5.494;2024-03-08T07:50:51;101293.22;;;3.64;73.72
47897;BME280;39629;51.400;5.494;2024-03-08T07:55:54;101291.41;;;3.75;72.39
47897;BME280;39629;51.400;5.494;2024-03-08T08:00:56;101274.78;;;4.00;73.02
47897;BME280;39629;51.400;5.494;2024-03-08T08:05:57;101288.41;;;4.19;71.43
47897;BME280;39629;51.400;5.494;2024-03-08T08:11:00;101267.19;;;4.54;70.15
47897;BME280;39629;51.400;5.494;2024-03-08T08:16:03;101258.13;;;4.71;70.71
47897;BME280;39629;51.400;5.494;2024-03-08T08:21:06;101246.97;;;4.99;68.82
47897;BME280;39629;51.400;5.494;2024-03-08T08:26:09;101256.78;;;5.14;69.18
47897;BME280;39629;51.400;5.494;2024-03-08T08:31:11;101243.44;;;5.34;68.23
47897;BME280;39629;51.400;5.494;2024-03-08T08:36:13;101246.78;;;5.75;66.34
47897;BME280;39629;51.400;5.494;2024-03-08T08:41:16;101246.75;;;6.30;66.14
47897;BME280;39629;51.400;5.494;2024-03-08T08:46:18;101237.03;;;6.05;65.07
47897;BME280;39629;51.400;5.494;2024-03-08T08:51:21;101224.03;;;6.32;64.42
47897;BME280;39629;51.400;5.494;2024-03-08T08:56:24;101227.81;;;6.70;63.52
47897;BME280;39629;51.400;5.494;2024-03-08T09:01:26;101225.22;;;6.89;62.30
47897;BME280;39629;51.400;5.494;2024-03-08T09:06:29;101222.47;;;7.23;61.40
47897;BME280;39629;51.400;5.494;2024-03-08T09:11:32;101207.94;;;7.58;59.84
47897;BME280;39629;51.400;5.494;2024-03-08T09:16:33;101191.38;;;7.56;60.81
47897;BME280;39629;51.400;5.494;2024-03-08T09:21:35;101196.66;;;7.37;60.56
47897;BME280;39629;51.400;5.494;2024-03-08T09:26:38;101185.09;;;7.66;60.04
47897;BME280;39629;51.400;5.494;2024-03-08T09:31:43;101177.69;;;7.81;59.38
47897;BME280;39629;51.400;5.494;2024-03-08T09:36:46;101168.22;;;7.89;59.19
47897;BME280;39629;51.400;5.494;2024-03-08T09:41:49;101148.03;;;7.97;58.26
47897;BME280;39629;51.400;5.494;2024-03-08T09:46:51;101139.69;;;8.17;58.19
47897;BME280;39629;51.400;5.494;2024-03-08T09:51:54;101127.59;;;8.38;58.09
47897;BME280;39629;51.400;5.494;2024-03-08T09:56:57;101120.16;;;7.84;58.84
47897;BME280;39629;51.400;5.494;2024-03-08T10:01:59;101109.75;;;8.34;57.98
47897;BME280;39629;51.400;5.494;2024-03-08T10:07:02;101091.44;;;8.55;57.31
47897;BME280;39629;51.400;5.494;2024-03-08T10:12:07;101089.19;;;8.89;57.19
47897;BME280;39629;51.400;5.494;2024-03-08T10:17:10;101087.06;;;8.72;55.49
47897;BME280;39629;51.400;5.494;2024-03-08T10:22:15;101075.38;;;9.09;56.42
47897;BME280;39629;51.400;5.494;2024-03-08T10:27:18;101075.28;;;9.28;56.30
47897;BME280;39629;51.400;5.494;2024-03-08T10:32:20;101045.00;;;9.28;55.20
47897;BME280;39629;51.400;5.494;2024-03-08T10:37:22;101046.09;;;10.07;50.75
47897;BME280;39629;51.400;5.494;2024-03-08T10:42:28;101034.06;;;9.83;50.74
47897;BME280;39629;51.400;5.494;2024-03-08T10:47:30;101050.00;;;10.32;49.89
47897;BME280;39629;51.400;5.494;2024-03-08T10:52:36;101021.84;;;10.21;48.41
47897;BME280;39629;51.400;5.494;2024-03-08T10:57:40;101028.06;;;10.70;48.78
47897;BME280;39629;51.400;5.494;2024-03-08T11:02:43;101013.34;;;10.28;48.95
47897;BME280;39629;51.400;5.494;2024-03-08T11:07:45;101004.66;;;10.00;49.25
47897;BME280;39629;51.400;5.494;2024-03-08T11:12:49;101003.25;;;10.33;47.99
47897;BME280;39629;51.400;5.494;2024-03-08T11:17:51;100992.50;;;10.25;48.66
47897;BME280;39629;51.400;5.494;2024-03-08T11:23:01;100989.72;;;10.47;48.35
47897;BME280;39629;51.400;5.494;2024-03-08T11:28:14;100982.72;;;10.86;47.02
47897;BME280;39629;51.400;5.494;2024-03-08T11:33:20;100985.09;;;10.87;47.40
47897;BME280;39629;51.400;5.494;2024-03-08T11:38:22;100981.28;;;10.71;46.96
47897;BME280;39629;51.400;5.494;2024-03-08T11:43:25;100978.19;;;11.03;45.38
47897;BME280;39629;51.400;5.494;2024-03-08T11:48:27;100959.22;;;11.26;46.07
47897;BME280;39629;51.400;5.494;2024-03-08T11:53:28;100957.47;;;11.39;47.48
47897;BME280;39629;51.400;5.494;2024-03-08T11:58:31;100964.28;;;10.93;45.51
47897;BME280;39629;51.400;5.494;2024-03-08T12:03:33;100935.44;;;11.62;44.10
47897;BME280;39629;51.400;5.494;2024-03-08T12:08:35;100941.66;;;11.20;44.18
47897;BME280;39629;51.400;5.494;2024-03-08T12:13:38;100929.75;;;11.55;45.00
47897;BME280;39629;51.400;5.494;2024-03-08T12:18:40;100928.53;;;11.99;44.01
47897;BME280;39629;51.400;5.494;2024-03-08T12:23:42;100923.69;;;11.76;43.24
47897;BME280;39629;51.400;5.494;2024-03-08T12:28:45;100929.41;;;11.65;43.92
47897;BME280;39629;51.400;5.494;2024-03-08T12:33:49;100907.47;;;11.38;43.32
47897;BME280;39629;51.400;5.494;2024-03-08T12:38:53;100890.81;;;12.08;43.37
47897;BME280;39629;51.400;5.494;2024-03-08T12:43:57;100890.44;;;12.18;42.31
47897;BME280;39629;51.400;5.494;2024-03-08T12:48:59;100889.28;;;11.98;43.30
47897;BME280;39629;51.400;5.494;2024-03-08T12:54:00;100878.44;;;11.69;43.70
47897;BME280;39629;51.400;5.494;2024-03-08T12:59:04;100869.41;;;11.82;44.42
47897;BME280;39629;51.400;5.494;2024-03-08T13:04:06;100865.03;;;11.98;43.51
47897;BME280;39629;51.400;5.494;2024-03-08T13:09:11;100850.03;;;11.89;43.02
47897;BME280;39629;51.400;5.494;2024-03-08T13:14:14;100839.56;;;11.96;43.99
47897;BME280;39629;51.400;5.494;2024-03-08T13:19:17;100841.78;;;11.94;43.87
47897;BME280;39629;51.400;5.494;2024-03-08T13:24:22;100819.28;;;11.98;44.12
47897;BME280;39629;51.400;5.494;2024-03-08T13:29:26;100815.59;;;12.53;43.27
47897;BME280;39629;51.400;5.494;2024-03-08T13:34:28;100803.97;;;12.41;41.90
47897;BME280;39629;51.400;5.494;2024-03-08T13:39:30;100788.72;;;12.45;42.38
47897;BME280;39629;51.400;5.494;2024-03-08T13:44:44;100780.28;;;12.25;40.69
47897;BME280;39629;51.400;5.494;2024-03-08T13:49:46;100788.84;;;12.48;43.09
47897;BME280;39629;51.400;5.494;2024-03-08T13:54:51;100776.09;;;12.16;41.46
47897;BME280;39629;51.400;5.494;2024-03-08T13:59:54;100758.91;;;12.50;41.86
47897;BME280;39629;51.400;5.494;2024-03-08T14:04:55;100750.47;;;12.51;41.56
47897;BME280;39629;51.400;5.494;2024-03-08T14:09:57;100743.44;;;12.17;42.86
47897;BME280;39629;51.400;5.494;2024-03-08T14:15:00;100727.75;;;12.19;41.93
47897;BME280;39629;51.400;5.494;2024-03-08T14:20:07;100722.31;;;12.28;41.55
47897;BME280;39629;51.400;5.494;2024-03-08T14:25:13;100706.56;;;11.97;41.61
47897;BME280;39629;51.400;5.494;2024-03-08T14:30:19;100699.78;;;11.91;41.23
47897;BME280;39629;51.400;5.494;2024-03-08T14:35:35;100697.81;;;12.00;41.77
47897;BME280;39629;51.400;5.494;2024-03-08T14:40:36;100682.38;;;12.09;41.15
47897;BME280;39629;51.400;5.494;2024-03-08T14:45:40;100679.25;;;12.28;41.35
47897;BME280;39629;51.400;5.494;2024-03-08T14:50:42;100668.59;;;12.11;40.88
47897;BME280;39629;51.400;5.494;2024-03-08T14:55:44;100658.94;;;12.10;41.54
47897;BME280;39629;51.400;5.494;2024-03-08T15:00:48;100653.13;;;11.87;41.78
47897;BME280;39629;51.400;5.494;2024-03-08T15:05:55;100648.59;;;11.79;41.50
47897;BME280;39629;51.400;5.494;2024-03-08T15:10:57;100638.97;;;12.11;42.57
47897;BME280;39629;51.400;5.494;2024-03-08T15:16:00;100641.28;;;12.00;41.09
47897;BME280;39629;51.400;5.494;2024-03-08T15:21:06;100628.22;;;11.90;40.85
47897;BME280;39629;51.400;5.494;2024-03-08T15:26:08;100636.31;;;11.90;42.27
47897;BME280;39629;51.400;5.494;2024-03-08T15:31:11;100619.91;;;11.83;42.35
47897;BME280;39629;51.400;5.494;2024-03-08T15:36:13;100613.31;;;11.72;41.57
47897;BME280;39629;51.400;5.494;2024-03-08T15:41:16;100613.66;;;11.70;41.62
47897;BME280;39629;51.400;5.494;2024-03-08T15:46:19;100603.81;;;11.74;42.14
47897;BME280;39629;51.400;5.494;2024-03-08T15:51:22;100599.88;;;11.51;41.76
47897;BME280;39629;51.400;5.494;2024-03-08T15:56:24;100598.16;;;11.46;41.37
47897;BME280;39629;51.400;5.494;2024-03-08T16:01:27;100591.72;;;11.39;43.54
47897;BME280;39629;51.400;5.494;2024-03-08T16:06:29;100578.47;;;11.33;43.13
47897;BME280;39629;51.400;5.494;2024-03-08T16:11:30;100579.66;;;11.24;45.61
47897;BME280;39629;51.400;5.494;2024-03-08T16:16:34;100579.06;;;11.18;45.42
47897;BME280;39629;51.400;5.494;2024-03-08T16:21:36;100567.56;;;11.09;43.83
47897;BME280;39629;51.400;5.494;2024-03-08T16:26:37;100565.06;;;11.04;44.24
47897;BME280;39629;51.400;5.494;2024-03-08T16:31:41;100546.78;;;10.89;44.55
47897;BME280;39629;51.400;5.494;2024-03-08T16:36:45;100544.78;;;10.77;43.81
47897;BME280;39629;51.400;5.494;2024-03-08T16:41:49;100554.44;;;10.69;43.81
47897;BME280;39629;51.400;5.494;2024-03-08T16:46:52;100545.97;;;10.59;45.35
47897;BME280;39629;51.400;5.494;2024-03-08T16:51:53;100550.91;;;10.48;46.31
47897;BME280;39629;51.400;5.494;2024-03-08T16:56:57;100559.16;;;10.34;46.16
47897;BME280;39629;51.400;5.494;2024-03-08T17:02:00;100552.25;;;10.25;46.82
47897;BME280;39629;51.400;5.494;2024-03-08T17:07:01;100554.00;;;10.03;47.59
47897;BME280;39629;51.400;5.494;2024-03-08T17:12:04;100555.91;;;9.94;47.88
47897;BME280;39629;51.400;5.494;2024-03-08T17:17:08;100555.00;;;9.82;49.67
47897;BME280;39629;51.400;5.494;2024-03-08T17:22:10;100569.66;;;9.75;49.62
47897;BME280;39629;51.400;5.494;2024-03-08T17:27:12;100561.94;;;9.57;50.57
47897;BME280;39629;51.400;5.494;2024-03-08T17:32:16;100570.63;;;9.36;51.32
47897;BME280;39629;51.400;5.494;2024-03-08T17:37:18;100563.34;;;9.20;52.81
47897;BME280;39629;51.400;5.494;2024-03-08T17:42:21;100564.41;;;9.10;53.05
47897;BME280;39629;51.400;5.494;2024-03-08T17:47:26;100552.09;;;9.09;53.39
47897;BME280;39629;51.400;5.494;2024-03-08T17:52:29;100545.94;;;9.00;52.93
47897;BME280;39629;51.400;5.494;2024-03-08T17:57:31;100558.97;;;8.84;54.11
47897;BME280;39629;51.400;5.494;2024-03-08T18:02:34;100562.34;;;8.67;53.98
47897;BME280;39629;51.400;5.494;2024-03-08T18:07:35;100558.69;;;8.55;54.96
47897;BME280;39629;51.400;5.494;2024-03-08T18:12:37;100558.56;;;8.60;54.56
47897;BME280;39629;51.400;5.494;2024-03-08T18:17:40;100547.50;;;8.53;54.95
47897;BME280;39629;51.400;5.494;2024-03-08T18:22:42;100546.19;;;8.41;55.85
47897;BME280;39629;51.400;5.494;2024-03-08T18:27:44;100536.03;;;8.30;56.10
47897;BME280;39629;51.400;5.494;2024-03-08T18:32:48;100536.34;;;8.28;56.16
47897;BME280;39629;51.400;5.494;2024-03-08T18:37:51;100533.41;;;8.07;56.96
47897;BME280;39629;51.400;5.494;2024-03-08T18:42:53;100533.78;;;7.92;57.90
47897;BME280;39629;51.400;5.494;2024-03-08T18:47:57;100536.09;;;7.85;58.05
47897;BME280;39629;51.400;5.494;2024-03-08T18:53:00;100538.13;;;7.79;58.24
47897;BME280;39629;51.400;5.494;2024-03-08T18:58:02;100536.78;;;7.68;58.44
47897;BME280;39629;51.400;5.494;2024-03-08T19:03:07;100523.78;;;7.75;58.09
47897;BME280;39629;51.400;5.494;2024-03-08T19:08:10;100515.22;;;7.65;58.53
47897;BME280;39629;51.400;5.494;2024-03-08T19:13:13;100511.75;;;7.64;58.60
47897;BME280;39629;51.400;5.494;2024-03-08T19:18:16;100514.41;;;7.64;58.88
47897;BME280;39629;51.400;5.494;2024-03-08T19:23:18;100511.63;;;7.47;59.50
47897;BME280;39629;51.400;5.494;2024-03-08T19:28:20;100502.31;;;7.44;59.58
47897;BME280;39629;51.400;5.494;2024-03-08T19:33:23;100495.19;;;7.40;59.94
47897;BME280;39629;51.400;5.494;2024-03-08T19:38:24;100497.19;;;7.34;60.03
47897;BME280;39629;51.400;5.494;2024-03-08T19:43:31;100496.69;;;7.32;60.21
47897;BME280;39629;51.400;5.494;2024-03-08T19:48:34;100498.47;;;7.37;60.50
47897;BME280;39629;51.400;5.494;2024-03-08T19:53:36;100491.72;;;7.39;59.91
47897;BME280;39629;51.400;5.494;2024-03-08T19:58:38;100492.69;;;7.21;60.90
47897;BME280;39629;51.400;5.494;2024-03-08T20:03:42;100485.38;;;7.13;61.13
47897;BME280;39629;51.400;5.494;2024-03-08T20:08:45;100485.13;;;7.01;61.70
47897;BME280;39629;51.400;5.494;2024-03-08T20:13:46;100481.19;;;6.84;62.72
47897;BME280;39629;51.400;5.494;2024-03-08T20:18:51;100482.09;;;6.80;62.98
47897;BME280;39629;51.400;5.494;2024-03-08T20:23:52;100472.44;;;6.70;63.45
47897;BME280;39629;51.400;5.494;2024-03-08T20:28:54;100474.72;;;6.63;63.20
47897;BME280;39629;51.400;5.494;2024-03-08T20:33:59;100472.41;;;6.56;63.61
47897;BME280;39629;51.400;5.494;2024-03-08T20:39:02;100467.66;;;6.53;63.42
47897;BME280;39629;51.400;5.494;2024-03-08T20:44:05;100467.09;;;6.43;64.30
47897;BME280;39629;51.400;5.494;2024-03-08T20:49:09;100460.72;;;6.39;64.10
47897;BME280;39629;51.400;5.494;2024-03-08T20:54:13;100464.19;;;6.25;65.10
47897;BME280;39629;51.400;5.494;2024-03-08T20:59:15;100466.06;;;6.25;65.10
47897;BME280;39629;51.400;5.494;2024-03-08T21:04:18;100466.25;;;6.15;66.16
47897;BME280;39629;51.400;5.494;2024-03-08T21:09:19;100471.56;;;6.01;66.31
47897;BME280;39629;51.400;5.494;2024-03-08T21:14:23;100468.88;;;5.87;66.16
47897;BME280;39629;51.400;5.494;2024-03-08T21:19:26;100463.06;;;5.85;67.37
47897;BME280;39629;51.400;5.494;2024-03-08T21:24:28;100468.47;;;5.80;67.67
47897;BME280;39629;51.400;5.494;2024-03-08T21:29:30;100467.28;;;5.73;67.38
47897;BME280;39629;51.400;5.494;2024-03-08T21:34:38;100451.63;;;5.66;68.01
47897;BME280;39629;51.400;5.494;2024-03-08T21:39:40;100446.28;;;5.52;69.03
47897;BME280;39629;51.400;5.494;2024-03-08T21:44:41;100439.38;;;5.51;68.79
47897;BME280;39629;51.400;5.494;2024-03-08T21:49:45;100441.53;;;5.49;68.84
47897;BME280;39629;51.400;5.494;2024-03-08T21:54:48;100437.66;;;5.42;68.96
47897;BME280;39629;51.400;5.494;2024-03-08T21:59:50;100437.31;;;5.29;68.69
47897;BME280;39629;51.400;5.494;2024-03-08T22:04:55;100437.19;;;5.21;70.11
47897;BME280;39629;51.400;5.494;2024-03-08T22:09:57;100436.69;;;5.00;71.11
47897;BME280;39629;51.400;5.494;2024-03-08T22:15:01;100440.72;;;4.97;71.82
47897;BME280;39629;51.400;5.494;2024-03-08T22:20:05;100434.50;;;4.83;71.05
47897;BME280;39629;51.400;5.494;2024-03-08T22:25:11;100428.53;;;4.73;71.63
47897;BME280;39629;51.400;5.494;2024-03-08T22:30:16;100427.25;;;4.70;72.28
47897;BME280;39629;51.400;5.494;2024-03-08T22:35:20;100426.28;;;4.61;71.36
47897;BME280;39629;51.400;5.494;2024-03-08T22:40:23;100419.91;;;4.62;73.08
47897;BME280;39629;51.400;5.494;2024-03-08T22:45:25;100421.56;;;4.58;73.33
47897;BME280;39629;51.400;5.494;2024-03-08T22:50:29;100412.72;;;4.62;72.30
47897;BME280;39629;51.400;5.494;2024-03-08T22:55:30;100403.22;;;4.56;72.78
47897;BME280;39629;51.400;5.494;2024-03-08T23:00:32;100408.88;;;4.50;73.19
47897;BME280;39629;51.400;5.494;2024-03-08T23:05:57;100414.72;;;4.52;72.95
47897;BME280;39629;51.400;5.494;2024-03-08T23:10:59;100399.53;;;4.52;73.05
47897;BME280;39629;51.400;5.494;2024-03-08T23:16:02;100384.94;;;4.50;73.53
47897;BME280;39629;51.400;5.494;2024-03-08T23:21:09;100390.56;;;4.48;72.98
47897;BME280;39629;51.400;5.494;2024-03-08T23:26:10;100385.47;;;4.52;73.42
47897;BME280;39629;51.400;5.494;2024-03-08T23:31:13;100386.88;;;4.44;74.34
47897;BME280;39629;51.400;5.494;2024-03-08T23:36:16;100366.69;;;4.43;74.24
47897;BME280;39629;51.400;5.494;2024-03-08T23:41:19;100363.75;;;4.45;73.72
47897;BME280;39629;51.400;5.494;2024-03-08T23:46:21;100355.41;;;4.51;74.08
47897;BME280;39629;51.400;5.494;2024-03-08T23:51:25;100349.72;;;4.39;74.66
47897;BME280;39629;51.400;5.494;2024-03-08T23:56:27;100345.78;;;4.37;74.87
